Time;durP1;ratioP1;P1;durP2;ratioP2;P2;SDS_P1;SDS_P2;PMS_P1;PMS_P2;Temp;Humidity;BMP_temperature;BMP_pressure;BME280_temperature;BME280_humidity;BME280_pressure;Samples;Min_cycle;Max_cycle;Signal;HPM_P1;HPM_P2
2024/01/08 00:00:52;;;;;;;24.45;21.88;;;-2.60;99.90;;;;;;5004342;28;20049;-80
2024/01/08 00:03:19;;;;;;;24.65;22.35;;;-2.70;99.90;;;;;;5031431;28;20037;-78
2024/01/08 00:05:45;;;;;;;25.98;23.55;;;-2.60;99.90;;;;;;4985726;28;20044;-77
2024/01/08 00:08:12;;;;;;;24.35;22.15;;;-2.60;99.90;;;;;;5035630;28;20101;-78
2024/01/08 00:10:39;;;;;;;25.80;23.33;;;-2.50;99.90;;;;;;5031178;28;20730;-78
2024/01/08 00:13:07;;;;;;;25.75;23.05;;;-2.50;99.90;;;;;;5019406;28;20053;-80
2024/01/08 00:15:33;;;;;;;21.88;19.98;;;-2.40;99.90;;;;;;5032162;28;20063;-78
2024/01/08 00:18:01;;;;;;;23.48;21.15;;;-2.50;99.90;;;;;;5012535;28;20047;-80
2024/01/08 00:20:29;;;;;;;21.35;19.55;;;-2.60;99.90;;;;;;5034773;28;20049;-80
2024/01/08 00:22:56;;;;;;;22.85;20.73;;;-2.60;99.90;;;;;;5005895;28;20485;-79
2024/01/08 00:25:23;;;;;;;24.17;21.63;;;-2.60;99.90;;;;;;5013119;28;20037;-78
2024/01/08 00:27:50;;;;;;;22.70;20.40;;;-2.60;99.90;;;;;;5015809;28;20053;-79
2024/01/08 00:30:17;;;;;;;22.30;20.05;;;-2.50;99.90;;;;;;5035885;28;20045;-80
2024/01/08 00:32:45;;;;;;;24.17;21.98;;;-2.50;99.90;;;;;;5039748;28;20036;-80
2024/01/08 00:35:13;;;;;;;23.63;21.42;;;-2.50;99.90;;;;;;5015494;28;20987;-78
2024/01/08 00:37:43;;;;;;;24.50;22.23;;;-2.50;99.90;;;;;;5019157;28;20045;-77
2024/01/08 00:40:11;;;;;;;24.90;22.38;;;-2.40;99.90;;;;;;5021650;28;20048;-79
2024/01/08 00:42:38;;;;;;;23.75;21.35;;;-2.60;99.90;;;;;;5030178;28;20045;-78
2024/01/08 00:45:07;;;;;;;24.75;22.08;;;-2.50;99.90;;;;;;5015500;28;20838;-80
2024/01/08 00:47:34;;;;;;;25.10;22.15;;;-2.50;99.90;;;;;;5013045;28;20697;-81
2024/01/08 00:50:02;;;;;;;24.95;22.45;;;-2.50;99.90;;;;;;5039402;28;20041;-78
2024/01/08 00:52:30;;;;;;;20.75;18.40;;;-2.50;99.90;;;;;;5017385;28;20048;-78
2024/01/08 00:55:03;;;;;;;24.60;22.08;;;-2.60;99.90;;;;;;5028123;28;20482;-79
2024/01/08 00:57:34;;;;;;;23.47;21.30;;;-2.60;99.90;;;;;;5032416;28;20047;-78
2024/01/08 01:00:02;;;;;;;25.63;20.80;;;-2.60;99.90;;;;;;4997638;28;20291;-77
2024/01/08 01:02:29;;;;;;;23.55;21.05;;;-2.60;99.90;;;;;;5007761;28;20037;-80
2024/01/08 01:04:56;;;;;;;24.02;21.52;;;-2.60;99.90;;;;;;5023973;28;20045;-80
2024/01/08 01:07:23;;;;;;;24.95;22.17;;;-2.60;99.90;;;;;;5033085;28;20147;-79
2024/01/08 01:09:50;;;;;;;23.70;21.23;;;-2.60;99.90;;;;;;5032585;28;20047;-77
2024/01/08 01:12:17;;;;;;;27.45;22.85;;;-2.60;99.90;;;;;;5038794;28;20048;-80
2024/01/08 01:14:44;;;;;;;24.17;21.27;;;-2.50;99.90;;;;;;5029917;28;20055;-78
2024/01/08 01:17:11;;;;;;;24.67;22.02;;;-2.50;99.90;;;;;;5018995;28;20048;-79
2024/01/08 01:19:38;;;;;;;25.85;22.98;;;-2.50;99.90;;;;;;5039430;28;20475;-79
2024/01/08 01:22:04;;;;;;;27.92;23.90;;;-2.50;99.90;;;;;;5014171;28;20044;-77
2024/01/08 01:24:31;;;;;;;26.17;23.25;;;-2.50;99.90;;;;;;5029231;28;20042;-79
2024/01/08 01:26:58;;;;;;;26.08;23.38;;;-2.50;99.90;;;;;;5011815;28;20097;-80
2024/01/08 01:29:25;;;;;;;25.45;22.60;;;-2.40;99.90;;;;;;5041202;28;20061;-77
2024/01/08 01:31:52;;;;;;;25.55;22.88;;;-2.50;99.90;;;;;;5020441;28;20048;-78
2024/01/08 01:34:19;;;;;;;27.83;22.77;;;-2.60;99.90;;;;;;4997532;28;20117;-78
2024/01/08 01:36:47;;;;;;;26.67;23.90;;;-2.50;99.90;;;;;;5014766;28;20056;-77
2024/01/08 01:39:14;;;;;;;37.83;23.60;;;-2.40;99.90;;;;;;5031629;28;20041;-79
2024/01/08 01:41:40;;;;;;;25.25;22.65;;;-2.50;99.90;;;;;;5010641;28;20051;-77
2024/01/08 01:44:08;;;;;;;27.23;23.05;;;-2.50;99.90;;;;;;5025554;28;20033;-79
2024/01/08 01:46:48;;;;;;;27.13;24.23;;;-2.40;99.90;;;;;;5012733;28;20056;-78
2024/01/08 01:49:20;;;;;;;28.27;24.23;;;-2.40;99.90;;;;;;5062955;28;20053;-80
2024/01/08 01:51:48;;;;;;;31.15;24.60;;;-2.40;99.90;;;;;;5028224;28;20099;-78
2024/01/08 01:54:16;;;;;;;27.80;24.48;;;-2.40;99.90;;;;;;5028270;28;20451;-80
2024/01/08 01:56:46;;;;;;;29.75;24.08;;;-2.40;99.90;;;;;;5030058;28;20056;-78
2024/01/08 01:59:16;;;;;;;29.42;24.27;;;-2.40;99.90;;;;;;5013751;28;20857;-78
2024/01/08 02:01:44;;;;;;;29.58;24.63;;;-2.40;99.90;;;;;;5005092;28;20076;-78
2024/01/08 02:04:13;;;;;;;30.30;24.23;;;-2.40;99.90;;;;;;5028928;28;20037;-79
2024/01/08 02:06:41;;;;;;;26.55;23.67;;;-2.40;99.90;;;;;;5027218;28;20546;-78
2024/01/08 02:09:08;;;;;;;28.00;23.33;;;-2.40;99.90;;;;;;5059757;28;20049;-79
2024/01/08 02:11:34;;;;;;;28.10;24.27;;;-2.50;99.90;;;;;;5025396;28;20049;-78
2024/01/08 02:14:01;;;;;;;26.83;21.65;;;-2.50;99.90;;;;;;5027481;28;20053;-78
2024/01/08 02:16:28;;;;;;;30.10;24.02;;;-2.50;99.90;;;;;;5017326;28;20055;-77
2024/01/08 02:18:55;;;;;;;27.27;23.35;;;-2.50;99.90;;;;;;5033584;28;20439;-77
2024/01/08 02:21:22;;;;;;;27.85;23.50;;;-2.40;99.90;;;;;;5032234;28;20133;-80
2024/01/08 02:23:49;;;;;;;29.52;23.58;;;-2.50;99.90;;;;;;4989489;28;20586;-79
2024/01/08 02:26:16;;;;;;;29.85;22.98;;;-2.40;99.90;;;;;;5010865;28;21108;-78
2024/01/08 02:28:43;;;;;;;31.15;24.98;;;-2.40;99.90;;;;;;5041033;28;20050;-77
2024/01/08 02:31:10;;;;;;;27.52;21.58;;;-2.40;99.90;;;;;;5009059;28;20083;-78
2024/01/08 02:33:36;;;;;;;27.38;22.73;;;-2.40;99.90;;;;;;5026022;28;20053;-77
2024/01/08 02:36:03;;;;;;;27.90;23.63;;;-2.40;99.90;;;;;;5032203;28;20058;-77
2024/01/08 02:38:30;;;;;;;24.90;21.60;;;-2.50;99.90;;;;;;5031487;28;20035;-77
2024/01/08 02:40:57;;;;;;;32.63;23.08;;;-2.40;99.90;;;;;;5037739;28;20173;-77
2024/01/08 02:43:27;;;;;;;32.22;25.60;;;-2.50;99.90;;;;;;5018401;28;20586;-80
2024/01/08 02:45:54;;;;;;;30.33;23.33;;;-2.50;99.90;;;;;;5025887;28;20419;-78
2024/01/08 02:48:20;;;;;;;29.70;22.48;;;-2.50;99.90;;;;;;5028764;28;20048;-78
2024/01/08 02:50:47;;;;;;;22.25;20.15;;;-2.60;99.90;;;;;;5019265;28;20468;-78
2024/01/08 02:53:14;;;;;;;26.40;22.70;;;-2.60;99.90;;;;;;5030089;28;20047;-77
2024/01/08 02:55:41;;;;;;;28.88;23.02;;;-2.60;99.90;;;;;;5026783;28;20049;-78
2024/01/08 02:58:09;;;;;;;28.40;22.33;;;-2.50;99.90;;;;;;5030218;28;20428;-79
2024/01/08 03:00:36;;;;;;;25.30;21.80;;;-2.50;99.90;;;;;;5029245;28;20044;-77
2024/01/08 03:03:03;;;;;;;29.30;24.20;;;-2.60;99.90;;;;;;5023338;28;20057;-80
2024/01/08 03:05:30;;;;;;;31.60;24.08;;;-2.50;99.90;;;;;;5042844;28;20068;-79
2024/01/08 03:07:57;;;;;;;32.65;24.25;;;-2.50;99.90;;;;;;5028481;28;20083;-78
2024/01/08 03:10:24;;;;;;;27.17;23.25;;;-2.50;99.90;;;;;;5032616;28;20524;-79
2024/01/08 03:12:51;;;;;;;25.58;22.83;;;-2.50;99.90;;;;;;5006616;28;20160;-81
2024/01/08 03:15:17;;;;;;;25.35;22.65;;;-2.40;99.90;;;;;;5024157;28;20643;-80
2024/01/08 03:17:44;;;;;;;27.25;23.70;;;-2.40;99.90;;;;;;5020938;28;20049;-79
2024/01/08 03:20:11;;;;;;;22.05;19.70;;;-2.50;99.90;;;;;;5033178;28;20060;-80
2024/01/08 03:22:39;;;;;;;26.55;21.23;;;-2.50;99.90;;;;;;5025492;28;20128;-80
2024/01/08 03:25:06;;;;;;;21.77;19.63;;;-2.60;99.90;;;;;;5010377;28;20041;-78
2024/01/08 03:27:33;;;;;;;23.70;21.23;;;-2.70;99.90;;;;;;5028956;28;20056;-78
2024/01/08 03:29:59;;;;;;;23.45;20.92;;;-2.70;99.90;;;;;;5034146;28;20617;-80
2024/01/08 03:32:26;;;;;;;27.13;22.75;;;-2.60;99.90;;;;;;5030806;28;20519;-78
2024/01/08 03:34:53;;;;;;;26.98;23.55;;;-2.60;99.90;;;;;;5031314;28;20053;-81
2024/01/08 03:37:20;;;;;;;25.70;23.10;;;-2.60;99.90;;;;;;5030398;28;20061;-79
2024/01/08 03:39:46;;;;;;;27.90;24.92;;;-2.60;99.90;;;;;;5037500;28;20637;-77
2024/01/08 03:42:13;;;;;;;25.13;22.52;;;-2.60;99.90;;;;;;5027297;28;20076;-79
2024/01/08 03:44:40;;;;;;;23.92;21.63;;;-2.60;99.90;;;;;;5006056;28;20045;-79
2024/01/08 03:47:07;;;;;;;25.90;22.67;;;-2.70;99.90;;;;;;5024682;28;20049;-77
2024/01/08 03:49:34;;;;;;;26.35;23.23;;;-2.60;99.90;;;;;;5056238;28;20681;-79
2024/01/08 03:52:01;;;;;;;25.13;22.70;;;-2.60;99.90;;;;;;5028997;28;20045;-78
2024/01/08 03:54:27;;;;;;;21.50;19.60;;;-2.60;99.90;;;;;;5029833;28;20155;-79
2024/01/08 03:56:57;;;;;;;27.60;24.33;;;-2.60;99.90;;;;;;5005575;28;20048;-78
2024/01/08 03:59:24;;;;;;;27.30;24.73;;;-2.50;99.90;;;;;;4996188;28;20052;-78
2024/01/08 04:01:52;;;;;;;24.25;21.92;;;-2.60;99.90;;;;;;5038081;28;20140;-78
2024/01/08 04:04:19;;;;;;;25.77;23.20;;;-2.60;99.90;;;;;;5013951;28;20068;-78
2024/01/08 04:06:46;;;;;;;27.05;24.20;;;-2.60;99.90;;;;;;5016503;28;20053;-79
2024/01/08 04:09:15;;;;;;;27.60;24.67;;;-2.50;99.90;;;;;;5026930;28;20053;-79
2024/01/08 04:11:42;;;;;;;24.17;21.70;;;-2.50;99.90;;;;;;5033298;28;20049;-77
2024/01/08 04:14:08;;;;;;;27.67;24.77;;;-2.50;99.90;;;;;;5017673;28;20044;-78
2024/01/08 04:16:37;;;;;;;25.80;22.98;;;-2.50;99.90;;;;;;5044028;28;20139;-79
2024/01/08 04:19:04;;;;;;;28.55;25.00;;;-2.60;99.90;;;;;;5034337;28;20127;-78
2024/01/08 04:21:32;;;;;;;30.45;27.55;;;-2.60;99.90;;;;;;5019519;28;20481;-78
2024/01/08 04:23:59;;;;;;;25.35;22.63;;;-2.50;99.90;;;;;;5028208;28;20238;-77
2024/01/08 04:26:27;;;;;;;24.90;22.50;;;-2.50;99.90;;;;;;5029501;28;20045;-78
2024/01/08 04:28:54;;;;;;;19.92;18.50;;;-2.50;99.90;;;;;;5044936;28;20075;-77
2024/01/08 04:31:21;;;;;;;25.70;23.40;;;-2.60;99.90;;;;;;5050903;28;20051;-77
2024/01/08 04:33:50;;;;;;;26.67;24.02;;;-2.60;99.90;;;;;;5032535;28;20063;-77
2024/01/08 04:36:17;;;;;;;26.08;23.58;;;-2.50;99.90;;;;;;5020700;28;20048;-78
2024/01/08 04:38:47;;;;;;;25.90;23.48;;;-2.50;99.90;;;;;;5031191;28;20053;-79
2024/01/08 04:41:20;;;;;;;22.90;21.00;;;-2.60;99.90;;;;;;5023221;28;20129;-76
2024/01/08 04:43:48;;;;;;;26.42;23.52;;;-2.60;99.90;;;;;;5027850;28;20141;-78
2024/01/08 04:46:16;;;;;;;23.60;21.65;;;-2.60;99.90;;;;;;5028200;28;20038;-79
2024/01/08 04:48:42;;;;;;;22.38;20.58;;;-2.60;99.90;;;;;;5024197;28;20045;-79
2024/01/08 04:51:23;;;;;;;23.92;22.02;;;-2.50;99.90;;;;;;5025340;28;20091;-76
2024/01/08 04:53:50;;;;;;;22.67;21.08;;;-2.60;99.90;;;;;;5021184;28;20056;-79
2024/01/08 04:56:24;;;;;;;26.35;23.98;;;-2.60;99.90;;;;;;5015415;28;20041;-78
2024/01/08 04:58:52;;;;;;;22.88;21.15;;;-2.60;99.90;;;;;;5023381;28;20140;-78
2024/01/08 05:01:19;;;;;;;23.77;21.75;;;-2.60;99.90;;;;;;5015211;28;20044;-78
2024/01/08 05:03:46;;;;;;;25.73;23.42;;;-2.60;99.90;;;;;;5026376;28;20079;-77
2024/01/08 05:06:14;;;;;;;26.20;23.80;;;-2.50;99.90;;;;;;5025968;28;20040;-79
2024/01/08 05:08:41;;;;;;;26.88;24.67;;;-2.50;99.90;;;;;;5026661;28;20113;-77
2024/01/08 05:11:08;;;;;;;26.63;24.58;;;-2.50;99.90;;;;;;4999145;28;20038;-78
2024/01/08 05:13:38;;;;;;;25.85;23.63;;;-2.60;99.90;;;;;;5007627;28;20106;-78
2024/01/08 05:16:06;;;;;;;23.42;21.75;;;-2.60;99.90;;;;;;5031414;28;20040;-79
2024/01/08 05:18:32;;;;;;;26.65;24.20;;;-2.60;99.90;;;;;;5018672;28;20064;-77
2024/01/08 05:20:59;;;;;;;26.33;23.98;;;-2.60;99.90;;;;;;5015381;28;20144;-78
2024/01/08 05:23:26;;;;;;;27.60;24.83;;;-2.70;99.90;;;;;;5026786;28;20095;-78
2024/01/08 05:25:58;;;;;;;26.30;24.30;;;-2.70;99.90;;;;;;5008479;28;20144;-79
2024/01/08 05:28:28;;;;;;;25.65;23.45;;;-2.70;99.90;;;;;;4987503;28;20060;-77
2024/01/08 05:30:55;;;;;;;24.27;22.27;;;-2.70;99.90;;;;;;4998008;28;20436;-78
2024/01/08 05:33:23;;;;;;;27.00;24.55;;;-2.70;99.90;;;;;;5025733;28;20132;-78
2024/01/08 05:35:50;;;;;;;26.42;24.38;;;-2.70;99.90;;;;;;5016624;28;20033;-79
2024/01/08 05:38:17;;;;;;;27.80;25.23;;;-2.70;99.90;;;;;;5027376;28;20396;-78
2024/01/08 05:40:44;;;;;;;26.90;24.63;;;-2.70;99.90;;;;;;5031440;28;20555;-79
2024/01/08 05:43:11;;;;;;;24.83;23.15;;;-2.60;99.90;;;;;;5003663;28;20132;-79
2024/01/08 05:45:44;;;;;;;26.02;24.02;;;-2.60;99.90;;;;;;5011751;28;20047;-78
2024/01/08 05:48:11;;;;;;;27.25;24.92;;;-2.70;99.90;;;;;;5032101;28;20045;-79
2024/01/08 05:50:40;;;;;;;25.38;23.50;;;-2.60;99.90;;;;;;5029902;28;20155;-77
2024/01/08 05:53:07;;;;;;;27.50;25.30;;;-2.60;99.90;;;;;;5023415;28;20068;-77
2024/01/08 05:55:35;;;;;;;24.30;22.73;;;-2.60;99.90;;;;;;5041212;28;20094;-77
2024/01/08 05:58:03;;;;;;;24.90;23.20;;;-2.60;99.90;;;;;;5032715;28;20065;-79
2024/01/08 06:00:31;;;;;;;27.35;25.23;;;-2.70;99.90;;;;;;5018257;28;20044;-78
2024/01/08 06:03:01;;;;;;;25.10;23.13;;;-2.70;99.90;;;;;;5014226;28;20053;-77
2024/01/08 06:05:28;;;;;;;27.05;24.88;;;-2.70;99.90;;;;;;5052257;28;20048;-79
2024/01/08 06:07:55;;;;;;;26.05;23.92;;;-2.70;99.90;;;;;;5047251;28;20083;-77
2024/01/08 06:10:21;;;;;;;24.02;22.33;;;-2.70;99.90;;;;;;5039751;28;20042;-77
2024/01/08 06:12:49;;;;;;;24.95;22.95;;;-2.70;99.90;;;;;;5053472;28;20046;-78
2024/01/08 06:15:18;;;;;;;23.40;21.52;;;-2.80;99.90;;;;;;5011740;28;20041;-78
2024/01/08 06:17:45;;;;;;;24.73;22.73;;;-2.80;99.90;;;;;;5015577;28;20064;-79
2024/01/08 06:20:13;;;;;;;23.73;21.55;;;-2.80;99.90;;;;;;5028546;28;20564;-79
2024/01/08 06:22:40;;;;;;;24.40;22.48;;;-2.80;99.90;;;;;;5028014;28;21571;-79
2024/01/08 06:25:08;;;;;;;24.10;22.30;;;-2.90;99.90;;;;;;5031208;28;20068;-77
2024/01/08 06:27:34;;;;;;;25.67;23.60;;;-2.90;99.90;;;;;;5023594;28;20049;-79
2024/01/08 06:30:01;;;;;;;25.23;23.23;;;-2.80;99.90;;;;;;5009558;28;20451;-77
2024/01/08 06:32:28;;;;;;;24.52;22.48;;;-2.90;99.90;;;;;;5012693;28;20049;-80
2024/01/08 06:34:56;;;;;;;24.05;22.13;;;-2.90;99.90;;;;;;5017842;28;20136;-77
2024/01/08 06:37:23;;;;;;;23.17;21.38;;;-2.90;99.90;;;;;;5026345;28;20111;-79
2024/01/08 06:39:50;;;;;;;22.35;20.85;;;-2.90;99.90;;;;;;5020405;28;20041;-77
2024/01/08 06:42:18;;;;;;;22.08;20.67;;;-3.00;99.90;;;;;;5052354;28;20041;-77
2024/01/08 06:44:44;;;;;;;22.92;21.30;;;-3.10;99.90;;;;;;5032782;28;20310;-78
2024/01/08 06:47:11;;;;;;;25.60;23.38;;;-3.20;99.90;;;;;;5011519;28;20045;-79
2024/01/08 06:49:38;;;;;;;25.30;23.08;;;-3.20;99.90;;;;;;5028879;28;20577;-77
2024/01/08 06:52:05;;;;;;;22.23;20.63;;;-3.30;99.90;;;;;;5030514;28;20542;-80
2024/01/08 06:54:32;;;;;;;25.65;23.55;;;-3.20;99.90;;;;;;4992968;28;20075;-78
2024/01/08 06:56:59;;;;;;;25.48;23.15;;;-3.30;99.90;;;;;;5031465;28;20040;-79
2024/01/08 06:59:26;;;;;;;24.70;22.55;;;-3.30;99.90;;;;;;5009955;28;20052;-78
2024/01/08 07:01:53;;;;;;;26.00;23.80;;;-3.30;99.90;;;;;;5017523;28;20478;-78
2024/01/08 07:04:20;;;;;;;24.55;22.73;;;-3.40;99.90;;;;;;5028427;28;20535;-80
2024/01/08 07:06:47;;;;;;;21.40;19.63;;;-3.40;99.90;;;;;;5019030;28;20048;-76
2024/01/08 07:09:14;;;;;;;23.33;21.13;;;-3.60;99.90;;;;;;5019160;28;20044;-76
2024/01/08 07:11:41;;;;;;;22.77;20.92;;;-3.70;99.90;;;;;;5014523;28;20037;-76
2024/01/08 07:14:08;;;;;;;22.73;20.77;;;-3.70;99.90;;;;;;5028171;28;20044;-77
2024/01/08 07:16:36;;;;;;;23.65;21.60;;;-3.80;99.90;;;;;;5000627;28;20044;-77
2024/01/08 07:19:03;;;;;;;23.55;21.65;;;-3.80;99.90;;;;;;5032467;28;20052;-78
2024/01/08 07:21:31;;;;;;;23.52;21.63;;;-3.90;99.90;;;;;;5017885;28;20064;-76
2024/01/08 07:23:58;;;;;;;23.38;21.55;;;-3.90;99.90;;;;;;5004942;28;20094;-79
2024/01/08 07:26:25;;;;;;;25.13;22.92;;;-4.00;99.90;;;;;;5019362;28;20051;-79
2024/01/08 07:28:52;;;;;;;24.15;22.25;;;-4.00;99.90;;;;;;5026021;28;20045;-78
2024/01/08 07:31:19;;;;;;;25.35;23.17;;;-4.10;99.90;;;;;;5043513;28;20052;-76
2024/01/08 07:33:46;;;;;;;255.68;97.70;;;-4.20;99.90;;;;;;5037926;28;20049;-78
2024/01/08 07:36:13;;;;;;;25.10;23.10;;;-4.20;99.90;;;;;;5046574;28;20049;-78
2024/01/08 07:38:40;;;;;;;23.92;22.15;;;-4.20;99.90;;;;;;5039963;28;20068;-79
2024/01/08 07:41:07;;;;;;;116.97;60.08;;;-4.20;99.90;;;;;;5030342;28;20048;-78
2024/01/08 07:43:37;;;;;;;23.23;21.52;;;-4.30;99.90;;;;;;5041352;28;20102;-78
2024/01/08 07:46:04;;;;;;;113.47;76.55;;;-4.30;99.90;;;;;;5029144;28;20141;-80
2024/01/08 07:48:31;;;;;;;25.23;23.02;;;-4.30;99.90;;;;;;5029383;28;20053;-78
2024/01/08 07:50:58;;;;;;;23.52;21.75;;;-4.40;99.90;;;;;;5050231;28;20053;-79
2024/01/08 07:53:25;;;;;;;25.73;23.55;;;-4.50;99.90;;;;;;5019911;28;20045;-78
2024/01/08 07:55:52;;;;;;;27.73;25.42;;;-4.50;99.90;;;;;;5018424;28;20052;-79
2024/01/08 07:58:19;;;;;;;23.75;22.08;;;-4.60;99.90;;;;;;5007122;28;20045;-79
2024/01/08 08:00:57;;;;;;;25.58;23.58;;;-4.60;99.90;;;;;;5049814;28;20053;-79
2024/01/08 08:03:24;;;;;;;25.17;23.27;;;-4.70;99.90;;;;;;5016029;28;20440;-79
2024/01/08 08:05:52;;;;;;;31.58;29.35;;;-4.80;99.90;;;;;;5044177;28;20040;-78
2024/01/08 08:08:19;;;;;;;35.25;32.75;;;-4.80;99.90;;;;;;5027341;28;20045;-78
2024/01/08 08:10:46;;;;;;;30.27;28.17;;;-4.80;99.90;;;;;;5019112;28;20049;-78
2024/01/08 08:13:13;;;;;;;29.33;27.30;;;-4.80;99.90;;;;;;5047002;28;20053;-77
2024/01/08 08:15:40;;;;;;;29.25;27.25;;;-4.80;99.90;;;;;;4997722;28;20053;-78
2024/01/08 08:18:07;;;;;;;33.40;31.00;;;-4.80;99.90;;;;;;5021984;28;20056;-79
2024/01/08 08:20:36;;;;;;;29.60;27.52;;;-4.90;99.90;;;;;;5016442;28;20143;-79
2024/01/08 08:23:03;;;;;;;32.90;30.33;;;-4.80;99.90;;;;;;5017742;28;20127;-78
2024/01/08 08:25:30;;;;;;;31.83;29.27;;;-4.80;99.90;;;;;;5044492;28;20052;-79
2024/01/08 08:27:57;;;;;;;32.10;29.80;;;-4.80;99.90;;;;;;5036720;28;20049;-79
2024/01/08 08:30:24;;;;;;;28.95;26.80;;;-4.80;99.90;;;;;;5036171;28;20041;-77
2024/01/08 08:32:55;;;;;;;28.75;26.75;;;-4.80;99.90;;;;;;5040220;28;20103;-79
2024/01/08 08:35:22;;;;;;;29.90;27.63;;;-4.80;99.90;;;;;;5011574;28;20045;-78
2024/01/08 08:37:50;;;;;;;30.23;28.02;;;-4.80;99.90;;;;;;5011122;28;20040;-77
2024/01/08 08:40:21;;;;;;;37.17;34.78;;;-4.80;99.90;;;;;;5023294;28;20079;-78
2024/01/08 08:42:48;;;;;;;37.53;35.25;;;-4.80;99.90;;;;;;5028316;28;20774;-77
2024/01/08 08:45:17;;;;;;;37.75;34.90;;;-4.80;99.90;;;;;;5035796;28;20036;-79
2024/01/08 08:47:45;;;;;;;35.17;32.92;;;-4.80;99.90;;;;;;5023275;28;20099;-77
2024/01/08 08:50:12;;;;;;;40.08;37.22;;;-4.70;99.90;;;;;;5038388;28;20686;-78
2024/01/08 08:52:43;;;;;;;85.18;68.75;;;-4.60;99.90;;;;;;5021077;28;20143;-78
2024/01/08 08:55:12;;;;;;;39.50;36.78;;;-4.60;99.90;;;;;;4994267;28;20076;-78
2024/01/08 08:57:40;;;;;;;38.10;35.75;;;-4.60;99.90;;;;;;5031433;28;20047;-79
2024/01/08 09:00:10;;;;;;;37.03;34.42;;;-4.60;99.90;;;;;;5022418;28;20057;-80
2024/01/08 09:02:54;;;;;;;37.22;34.63;;;-4.50;99.90;;;;;;5033211;28;20040;-78
2024/01/08 09:05:48;;;;;;;36.45;33.92;;;-4.50;99.90;;;;;;5006906;28;20055;-78
2024/01/08 09:08:16;;;;;;;36.10;33.72;;;-4.60;99.90;;;;;;5037644;28;20502;-78
2024/01/08 09:10:43;;;;;;;34.40;31.90;;;-4.70;99.90;;;;;;5018107;28;20041;-77
2024/01/08 09:13:10;;;;;;;38.83;35.85;;;-4.70;99.90;;;;;;5021275;28;20041;-78
2024/01/08 09:15:37;;;;;;;36.20;33.70;;;-4.60;99.90;;;;;;5015391;28;20874;-77
2024/01/08 09:18:04;;;;;;;37.70;35.25;;;-4.50;99.90;;;;;;5018914;28;20151;-77
2024/01/08 09:20:33;;;;;;;39.95;37.13;;;-4.50;99.90;;;;;;5033571;28;20056;-78
2024/01/08 09:23:00;;;;;;;38.20;35.65;;;-4.50;99.90;;;;;;5028461;28;20057;-77
2024/01/08 09:25:27;;;;;;;36.53;34.33;;;-4.50;99.90;;;;;;5006929;28;20287;-76
2024/01/08 09:27:54;;;;;;;35.42;33.33;;;-4.50;99.90;;;;;;5013713;28;20059;-77
2024/01/08 09:30:20;;;;;;;38.67;36.10;;;-4.60;99.90;;;;;;5031768;28;20048;-78
2024/01/08 09:32:47;;;;;;;37.15;34.83;;;-4.80;99.90;;;;;;5014342;28;20060;-77
2024/01/08 09:35:15;;;;;;;45.63;42.30;;;-4.70;99.90;;;;;;5032796;28;20029;-76
2024/01/08 09:37:43;;;;;;;38.28;35.97;;;-4.70;99.90;;;;;;5061853;28;20105;-76
2024/01/08 09:40:10;;;;;;;43.88;40.65;;;-4.60;99.90;;;;;;5056090;28;20029;-77
2024/01/08 09:42:39;;;;;;;40.08;37.30;;;-4.60;99.90;;;;;;5030247;28;21141;-77
2024/01/08 09:45:11;;;;;;;40.83;38.42;;;-4.50;99.90;;;;;;5021118;28;20056;-76
2024/01/08 09:47:40;;;;;;;44.42;41.55;;;-4.40;99.90;;;;;;5026907;28;20056;-76
2024/01/08 09:50:09;;;;;;;43.00;39.95;;;-4.20;99.90;;;;;;5044801;28;20057;-77
2024/01/08 09:52:41;;;;;;;43.53;40.65;;;-4.20;99.90;;;;;;4999109;28;20334;-78
2024/01/08 09:55:10;;;;;;;41.53;38.83;;;-4.30;99.90;;;;;;5014409;28;20078;-80
2024/01/08 09:57:36;;;;;;;43.65;40.97;;;-4.30;99.90;;;;;;5029352;28;20566;-78
2024/01/08 10:00:05;;;;;;;41.60;38.88;;;-4.50;99.90;;;;;;5037678;28;20895;-77
2024/01/08 10:02:38;;;;;;;48.63;44.58;;;-4.40;99.90;;;;;;5024436;28;20046;-77
2024/01/08 10:05:07;;;;;;;42.75;40.10;;;-4.30;99.90;;;;;;5010156;28;20127;-77
2024/01/08 10:07:35;;;;;;;43.97;40.75;;;-4.30;99.90;;;;;;5030958;28;20045;-76
2024/01/08 10:10:03;;;;;;;41.88;39.13;;;-4.30;99.90;;;;;;5045027;28;20124;-76
2024/01/08 10:12:32;;;;;;;59.28;49.65;;;-4.40;99.90;;;;;;5025825;28;20060;-77
2024/01/08 10:15:02;;;;;;;43.13;40.13;;;-4.20;99.90;;;;;;5038163;28;20622;-77
2024/01/08 10:17:32;;;;;;;138.02;73.43;;;-4.20;99.90;;;;;;4992249;28;20507;-75
2024/01/08 10:20:07;;;;;;;155.93;74.47;;;-4.20;99.90;;;;;;5032051;28;20073;-76
2024/01/08 10:22:35;;;;;;;129.00;64.88;;;-4.20;99.90;;;;;;5010012;28;20049;-77
2024/01/08 10:25:03;;;;;;;150.55;77.32;;;-4.20;99.90;;;;;;5024474;28;20079;-76
2024/01/08 10:27:30;;;;;;;37.40;34.78;;;-4.10;99.90;;;;;;5033646;28;20131;-76
2024/01/08 10:29:58;;;;;;;42.47;39.22;;;-4.20;99.90;;;;;;5034983;28;20132;-77
2024/01/08 10:32:25;;;;;;;39.83;36.85;;;-4.10;99.90;;;;;;5015255;28;20043;-77
2024/01/08 10:34:52;;;;;;;50.58;45.75;;;-4.20;99.90;;;;;;5032512;28;20068;-77
2024/01/08 10:37:20;;;;;;;39.40;36.90;;;-4.10;99.90;;;;;;5015436;28;20088;-77
2024/01/08 10:39:48;;;;;;;58.75;53.90;;;-4.10;99.90;;;;;;5031440;28;20103;-77
2024/01/08 10:42:18;;;;;;;44.33;41.63;;;-4.30;99.90;;;;;;5024737;28;20798;-77
2024/01/08 10:44:45;;;;;;;42.38;39.28;;;-4.40;99.90;;;;;;5019571;28;20116;-77
2024/01/08 10:47:19;;;;;;;39.03;36.47;;;-4.50;99.90;;;;;;5037687;28;20144;-77
2024/01/08 10:49:58;;;;;;;41.30;37.83;;;-4.20;99.90;;;;;;5035407;28;20045;-77
2024/01/08 10:52:29;;;;;;;42.05;39.05;;;-4.00;99.90;;;;;;5004819;28;20049;-78
2024/01/08 10:55:01;;;;;;;40.40;37.63;;;-4.10;99.90;;;;;;5029910;28;20127;-81
2024/01/08 10:57:46;;;;;;;39.22;36.47;;;-4.20;99.90;;;;;;5021416;28;20060;-78
2024/01/08 11:00:14;;;;;;;41.42;38.28;;;-4.20;99.90;;;;;;5037343;28;20108;-78
2024/01/08 11:02:42;;;;;;;39.08;36.25;;;-4.00;99.90;;;;;;5043343;28;20061;-77
2024/01/08 11:05:09;;;;;;;37.58;34.95;;;-3.90;99.90;;;;;;5019209;28;20626;-78
2024/01/08 11:07:40;;;;;;;38.95;36.42;;;-3.80;99.90;;;;;;5044611;28;20045;-78
2024/01/08 11:10:11;;;;;;;40.75;38.00;;;-4.00;99.90;;;;;;5015610;28;20083;-78
2024/01/08 11:12:50;;;;;;;45.08;41.97;;;-4.00;99.90;;;;;;5013441;28;20049;-78
2024/01/08 11:15:17;;;;;;;37.63;35.00;;;-3.90;99.90;;;;;;5034929;28;20079;-78
2024/01/08 11:17:54;;;;;;;39.05;36.35;;;-3.90;99.90;;;;;;5005581;28;20067;-78
2024/01/08 11:20:33;;;;;;;36.97;34.35;;;-3.80;99.90;;;;;;5008506;28;20045;-77
2024/01/08 11:23:24;;;;;;;40.35;37.15;;;-3.90;99.90;;;;;;5027988;28;20040;-77
2024/01/08 11:25:51;;;;;;;36.83;34.35;;;-3.90;99.90;;;;;;5004581;28;20122;-77
2024/01/08 11:28:18;;;;;;;39.10;36.15;;;-3.80;99.90;;;;;;5043937;28;20040;-79
2024/01/08 11:30:50;;;;;;;35.20;32.72;;;-3.70;99.90;;;;;;5018085;28;20202;-77
2024/01/08 11:33:38;;;;;;;38.47;35.22;;;-3.70;99.90;;;;;;5017101;28;20064;-77
2024/01/08 11:36:15;;;;;;;64.93;52.85;;;-3.90;99.90;;;;;;5015840;28;20802;-78
2024/01/08 11:39:02;;;;;;;38.35;35.85;;;-3.80;99.90;;;;;;5016380;28;20075;-77
2024/01/08 11:41:29;;;;;;;41.47;38.72;;;-3.70;99.90;;;;;;5034711;28;20431;-79
2024/01/08 11:43:56;;;;;;;42.60;39.47;;;-3.80;99.90;;;;;;5009295;28;20044;-78
2024/01/08 11:46:24;;;;;;;41.88;38.90;;;-3.80;99.90;;;;;;4991855;28;20104;-78
2024/01/08 11:48:51;;;;;;;40.13;37.53;;;-3.70;99.90;;;;;;5012618;28;20545;-78
2024/01/08 11:51:20;;;;;;;41.72;38.80;;;-3.70;99.90;;;;;;5013193;28;20500;-78
2024/01/08 11:53:50;;;;;;;42.35;39.60;;;-3.60;99.90;;;;;;5020657;28;20114;-78
2024/01/08 11:56:17;;;;;;;37.35;34.75;;;-3.50;99.90;;;;;;5018227;28;20041;-79
2024/01/08 11:58:44;;;;;;;36.55;34.03;;;-3.60;99.90;;;;;;5032364;28;20064;-79
2024/01/08 12:01:17;;;;;;;40.65;37.75;;;-3.50;99.90;;;;;;5006803;28;20042;-78
2024/01/08 12:03:43;;;;;;;40.03;37.08;;;-3.60;99.90;;;;;;5009538;28;20077;-79
2024/01/08 12:06:12;;;;;;;38.42;35.42;;;-3.40;99.90;;;;;;4996286;28;20049;-78
2024/01/08 12:08:39;;;;;;;36.30;33.67;;;-3.50;99.90;;;;;;5010692;28;20049;-78
2024/01/08 12:11:06;;;;;;;36.60;33.90;;;-3.50;99.90;;;;;;5008206;28;20408;-78
2024/01/08 12:13:33;;;;;;;39.20;36.60;;;-3.50;99.90;;;;;;5014488;28;20053;-79
2024/01/08 12:16:01;;;;;;;37.90;35.40;;;-3.40;99.90;;;;;;5028918;28;20050;-78
2024/01/08 12:18:29;;;;;;;35.00;32.70;;;-3.50;99.90;;;;;;5035822;28;20048;-78
2024/01/08 12:20:56;;;;;;;35.45;32.95;;;-3.40;99.90;;;;;;5029759;28;20045;-79
2024/01/08 12:23:23;;;;;;;39.63;36.72;;;-3.30;99.90;;;;;;5018123;28;20434;-79
2024/01/08 12:25:50;;;;;;;36.33;33.47;;;-3.10;99.90;;;;;;5024801;28;20049;-77
2024/01/08 12:28:17;;;;;;;35.03;32.53;;;-3.00;99.90;;;;;;5035219;28;20532;-78
2024/01/08 12:30:45;;;;;;;37.58;34.75;;;-2.90;99.90;;;;;;5036201;28;20159;-78